createdAt,value
2022-09-03T00:03:00.186Z,24.22
2022-09-03T00:06:11.509Z,24.12
2022-09-03T00:09:23.573Z,23.88
2022-09-03T00:12:30.654Z,23.91
2022-09-03T00:15:37.245Z,23.96
2022-09-03T00:18:44.371Z,23.85
2022-09-03T00:21:51.784Z,23.78
2022-09-03T00:25:00.480Z,23.74
2022-09-03T00:28:08.372Z,23.68
2022-09-03T00:31:18.355Z,23.74
2022-09-03T00:34:27.025Z,23.79
2022-09-03T00:37:38.083Z,23.77
2022-09-03T00:40:54.520Z,23.76
2022-09-03T00:44:14.500Z,23.67
2022-09-03T00:47:25.109Z,23.59
2022-09-03T00:50:36.575Z,23.43
2022-09-03T00:53:45.828Z,23.54
2022-09-03T00:57:06.191Z,23.65
2022-09-03T01:00:13.115Z,23.71
2022-09-03T01:03:24.197Z,23.74
2022-09-03T01:06:33.945Z,23.79
2022-09-03T01:09:49.133Z,23.71
2022-09-03T01:13:00.990Z,23.68
2022-09-03T01:16:11.480Z,23.63
2022-09-03T01:19:29.027Z,23.59
2022-09-03T01:23:01.294Z,23.59
2022-09-03T01:26:22.990Z,23.60
2022-09-03T01:29:35.561Z,23.46
2022-09-03T01:32:47.754Z,23.25
2022-09-03T01:35:54.762Z,23.19
2022-09-03T01:39:02.828Z,23.00
2022-09-03T01:42:20.399Z,23.07
2022-09-03T01:45:36.269Z,22.93
2022-09-03T01:48:44.301Z,22.98
2022-09-03T01:51:53.200Z,22.89
2022-09-03T01:55:07.268Z,22.77
2022-09-03T01:58:14.194Z,22.51
2022-09-03T02:01:23.391Z,22.47
2022-09-03T02:04:28.984Z,22.24
2022-09-03T02:07:34.912Z,22.07
2022-09-03T02:10:41.787Z,22.05
2022-09-03T02:13:49.780Z,22.03
2022-09-03T02:16:57.332Z,21.90
2022-09-03T02:20:05.116Z,21.80
2022-09-03T02:23:10.422Z,21.77
2022-09-03T02:26:18.168Z,21.74
2022-09-03T02:29:24.075Z,21.76
2022-09-03T02:32:30.957Z,21.78
2022-09-03T02:35:36.474Z,21.72
2022-09-03T02:38:42.804Z,21.69
2022-09-03T02:41:52.488Z,21.61
2022-09-03T02:45:01.720Z,21.58
2022-09-03T02:48:10.846Z,21.43
2022-09-03T02:51:16.271Z,21.44
2022-09-03T02:54:21.356Z,21.19
2022-09-03T02:57:27.605Z,21.16
2022-09-03T03:00:33.320Z,21.08
2022-09-03T03:03:40.073Z,20.96
2022-09-03T03:06:47.699Z,20.78
2022-09-03T03:09:52.989Z,20.76
2022-09-03T03:12:58.668Z,20.69
2022-09-03T03:16:06.360Z,20.66
2022-09-03T03:19:13.285Z,20.70
2022-09-03T03:22:18.227Z,20.65
2022-09-03T03:25:23.871Z,20.67
2022-09-03T03:28:29.196Z,20.64
2022-09-03T03:31:35.289Z,20.71
2022-09-03T03:34:41.737Z,20.59
2022-09-03T03:37:47.103Z,20.61
2022-09-03T03:40:52.769Z,20.68
2022-09-03T03:43:59.170Z,20.68
2022-09-03T03:47:06.102Z,20.68
2022-09-03T03:50:12.690Z,20.68
2022-09-03T03:53:18.011Z,20.61
2022-09-03T03:56:24.377Z,20.57
2022-09-03T03:59:29.564Z,20.64
2022-09-03T04:02:38.905Z,20.62
2022-09-03T04:05:55.441Z,20.53
2022-09-03T04:09:00.586Z,20.58
2022-09-03T04:12:08.839Z,20.60
2022-09-03T04:15:14.316Z,20.59
2022-09-03T04:18:19.154Z,20.61
2022-09-03T04:21:28.499Z,20.51
2022-09-03T04:24:33.906Z,20.53
2022-09-03T04:27:39.365Z,20.63
2022-09-03T04:30:44.889Z,20.68
2022-09-03T04:33:55.017Z,20.60
2022-09-03T04:37:01.593Z,20.55
2022-09-03T04:40:07.445Z,20.62
2022-09-03T04:43:12.862Z,20.71
2022-09-03T04:46:18.520Z,20.74
2022-09-03T04:49:25.073Z,20.70
2022-09-03T04:52:32.057Z,20.59
2022-09-03T04:55:38.373Z,20.64
2022-09-03T04:58:44.421Z,20.63
2022-09-03T05:01:49.758Z,20.66
2022-09-03T05:04:55.377Z,20.57
2022-09-03T05:08:02.569Z,20.56
2022-09-03T05:11:08.640Z,20.60
2022-09-03T05:14:13.541Z,20.60
2022-09-03T05:17:19.032Z,20.51
2022-09-03T05:20:24.409Z,20.44
2022-09-03T05:23:36.937Z,20.43
2022-09-03T05:26:43.245Z,20.52
2022-09-03T05:29:48.861Z,20.32
2022-09-03T05:32:54.198Z,20.40
2022-09-03T05:36:02.311Z,20.20
2022-09-03T05:39:09.397Z,20.30
2022-09-03T05:42:15.178Z,20.30
2022-09-03T05:45:30.622Z,20.37
2022-09-03T05:48:39.582Z,20.28
2022-09-03T05:51:44.979Z,20.38
2022-09-03T05:54:51.692Z,20.37
2022-09-03T05:57:57.008Z,20.45
2022-09-03T06:01:11.091Z,20.48
2022-09-03T06:04:17.209Z,20.55
2022-09-03T06:07:27.416Z,20.58
2022-09-03T06:10:40.876Z,20.62
2022-09-03T06:13:47.570Z,20.68
2022-09-03T06:16:53.142Z,20.60
2022-09-03T06:20:01.265Z,20.49
2022-09-03T06:23:07.107Z,20.60
2022-09-03T06:26:14.651Z,20.56
2022-09-03T06:29:20.350Z,20.49
2022-09-03T06:32:26.007Z,20.76
2022-09-03T06:35:31.181Z,21.02
2022-09-03T06:38:45.731Z,21.10
2022-09-03T06:41:53.584Z,21.04
2022-09-03T06:44:58.663Z,20.86
2022-09-03T06:48:03.892Z,20.84
2022-09-03T06:51:12.302Z,20.85
2022-09-03T06:54:17.521Z,20.99
2022-09-03T06:57:24.040Z,21.14
2022-09-03T07:00:30.778Z,21.22
2022-09-03T07:03:37.249Z,21.44
2022-09-03T07:06:44.490Z,21.60
2022-09-03T07:09:50.012Z,21.88
2022-09-03T07:12:57.105Z,22.16
2022-09-03T07:16:03.096Z,22.51
2022-09-03T07:19:09.336Z,22.75
2022-09-03T07:22:14.684Z,22.95
2022-09-03T07:25:20.074Z,23.16
2022-09-03T07:28:33.646Z,23.25
2022-09-03T07:31:41.597Z,23.28
2022-09-03T07:34:46.793Z,23.18
2022-09-03T07:37:52.571Z,23.32
2022-09-03T07:41:01.744Z,22.99
2022-09-03T07:44:09.612Z,23.07
2022-09-03T07:47:15.123Z,23.08
2022-09-03T07:50:26.985Z,23.35
2022-09-03T07:53:32.388Z,23.61
2022-09-03T07:56:38.041Z,23.66
2022-09-03T07:59:44.994Z,23.50
2022-09-03T08:02:50.524Z,23.58
2022-09-03T08:06:01.912Z,23.71
2022-09-03T08:09:08.717Z,23.88
2022-09-03T08:12:14.184Z,23.81
2022-09-03T08:15:20.955Z,24.18
2022-09-03T08:18:27.249Z,24.01
2022-09-03T08:21:32.696Z,23.70
2022-09-03T08:24:38.555Z,23.58
2022-09-03T08:27:43.970Z,23.63
2022-09-03T08:30:51.004Z,23.90
2022-09-03T08:33:57.416Z,23.77
2022-09-03T08:37:03.012Z,23.86
2022-09-03T08:40:08.586Z,24.02
2022-09-03T08:43:17.557Z,24.09
2022-09-03T08:46:26.895Z,24.22
2022-09-03T08:49:36.049Z,24.50
2022-09-03T08:52:47.113Z,24.64
2022-09-03T08:55:53.808Z,25.27
2022-09-03T08:58:59.068Z,24.65
2022-09-03T09:02:14.931Z,24.37
2022-09-03T09:05:23.329Z,23.81
2022-09-03T09:08:34.021Z,23.35
2022-09-03T09:11:48.022Z,23.10
2022-09-03T09:15:08.093Z,22.90
2022-09-03T09:18:19.488Z,22.65
2022-09-03T09:21:28.862Z,22.57
2022-09-03T09:24:37.962Z,22.77
2022-09-03T09:27:51.814Z,23.15
2022-09-03T09:30:58.509Z,23.27
2022-09-03T09:34:07.350Z,23.55
2022-09-03T09:37:14.477Z,23.50
2022-09-03T09:40:28.243Z,23.40
2022-09-03T09:43:33.673Z,23.37
2022-09-03T09:46:41.141Z,23.10
2022-09-03T09:49:53.649Z,23.29
2022-09-03T09:53:08.596Z,23.58
2022-09-03T09:56:22.416Z,23.61
2022-09-03T09:59:27.906Z,23.16
2022-09-03T10:02:35.955Z,23.35
2022-09-03T10:05:43.986Z,23.51
2022-09-03T10:08:49.444Z,23.24
2022-09-03T10:12:04.521Z,23.08
2022-09-03T10:15:18.017Z,22.71
2022-09-03T10:18:29.282Z,22.77
2022-09-03T10:21:40.913Z,22.64
2022-09-03T10:24:54.591Z,22.76
2022-09-03T10:28:02.155Z,22.86
2022-09-03T10:31:17.789Z,22.62
2022-09-03T10:34:27.162Z,22.78
2022-09-03T10:37:38.814Z,22.83
2022-09-03T10:40:47.321Z,23.12
2022-09-03T10:44:01.309Z,23.17
2022-09-03T10:47:12.910Z,23.16
2022-09-03T10:50:23.345Z,23.25
2022-09-03T10:53:40.081Z,23.26
2022-09-03T10:56:51.628Z,23.24
2022-09-03T11:00:05.227Z,23.29
2022-09-03T11:03:31.285Z,23.47
2022-09-03T11:06:43.182Z,23.69
2022-09-03T11:09:55.160Z,23.70
2022-09-03T11:13:04.900Z,23.84
2022-09-03T11:16:14.346Z,23.77
2022-09-03T11:19:21.837Z,23.91
2022-09-03T11:22:27.068Z,23.88
2022-09-03T11:25:35.836Z,24.05
2022-09-03T11:28:46.360Z,23.99
2022-09-03T11:31:57.968Z,23.83
2022-09-03T11:35:03.328Z,23.87
2022-09-03T11:38:21.505Z,23.98
2022-09-03T11:41:28.937Z,23.90
2022-09-03T11:44:37.849Z,23.89
2022-09-03T11:47:53.850Z,23.95
2022-09-03T11:50:59.214Z,23.91
2022-09-03T11:54:05.629Z,23.86
2022-09-03T11:57:13.824Z,23.69
2022-09-03T12:00:22.678Z,23.81
2022-09-03T12:03:29.857Z,23.65
2022-09-03T12:06:51.933Z,23.54
2022-09-03T12:10:12.301Z,23.46
2022-09-03T12:13:27.336Z,23.36
2022-09-03T12:16:56.201Z,23.45
2022-09-03T12:20:01.208Z,23.36
2022-09-03T12:23:07.608Z,23.24
2022-09-03T12:26:15.030Z,23.10
2022-09-03T12:29:27.605Z,23.24
2022-09-03T12:32:37.442Z,23.18
2022-09-03T12:35:58.943Z,23.00
2022-09-03T12:39:11.844Z,23.12
2022-09-03T12:42:21.884Z,22.90
2022-09-03T12:46:09.856Z,22.65
2022-09-03T12:52:21.628Z,22.68
2022-09-03T12:55:35.044Z,22.53
2022-09-03T12:58:44.364Z,22.65
2022-09-03T13:01:53.507Z,22.73
2022-09-03T13:04:58.868Z,22.66
2022-09-03T13:08:05.908Z,22.64
2022-09-03T13:11:11.123Z,22.49
2022-09-03T13:14:20.116Z,22.47
2022-09-03T13:17:33.022Z,22.40
2022-09-03T13:20:42.471Z,22.25
2022-09-03T13:24:00.247Z,22.47
2022-09-03T13:27:08.496Z,22.33
2022-09-03T13:30:17.209Z,22.44
2022-09-03T13:33:26.538Z,22.35
2022-09-03T13:36:40.075Z,22.50
2022-09-03T13:39:52.569Z,22.27
2022-09-03T13:43:03.892Z,21.93
2022-09-03T13:46:12.632Z,21.79
2022-09-03T13:49:46.447Z,21.64
2022-09-03T13:52:57.434Z,21.82
2022-09-03T13:56:06.604Z,21.74
2022-09-03T13:59:16.837Z,21.64
2022-09-03T14:02:28.928Z,21.35
2022-09-03T14:05:42.680Z,21.43
2022-09-03T14:08:58.973Z,21.19
2022-09-03T14:12:06.660Z,21.17
2022-09-03T14:15:21.834Z,21.00
2022-09-03T14:18:33.923Z,20.79
2022-09-03T14:21:46.111Z,20.67
2022-09-03T14:24:53.906Z,20.60
2022-09-03T14:28:14.295Z,20.56
2022-09-03T14:31:24.050Z,20.55
2022-09-03T14:34:39.265Z,20.68
2022-09-03T14:37:58.188Z,20.51
2022-09-03T14:41:07.635Z,20.38
2022-09-03T14:44:22.881Z,20.20
2022-09-03T14:47:35.246Z,20.17
2022-09-03T14:50:51.857Z,20.24
2022-09-03T14:54:13.762Z,20.16
2022-09-03T14:57:34.577Z,20.17
2022-09-03T15:00:48.513Z,20.20
2022-09-03T15:04:05.372Z,20.02
2022-09-03T15:07:18.416Z,20.13
2022-09-03T15:10:29.158Z,20.17
2022-09-03T15:13:35.810Z,20.01
2022-09-03T15:16:48.576Z,20.00
2022-09-03T15:20:07.693Z,19.97
2022-09-03T15:23:20.643Z,19.87
2022-09-03T15:26:50.277Z,19.70
2022-09-03T15:30:01.924Z,19.63
2022-09-03T15:33:12.762Z,19.68
2022-09-03T15:36:21.029Z,19.60
2022-09-03T15:39:29.072Z,19.53
2022-09-03T15:42:34.201Z,19.61
2022-09-03T15:45:52.128Z,19.57
2022-09-03T15:49:00.816Z,19.59
2022-09-03T15:52:24.925Z,19.64
2022-09-03T15:55:33.471Z,19.53
2022-09-03T15:58:44.143Z,19.61
2022-09-03T16:01:54.182Z,19.65
2022-09-03T16:05:06.200Z,19.72
2022-09-03T16:08:19.091Z,19.65
2022-09-03T16:11:31.721Z,19.58
2022-09-03T16:14:39.579Z,19.71
2022-09-03T16:17:53.680Z,19.67
2022-09-03T16:21:02.596Z,19.59
2022-09-03T16:24:14.173Z,19.57
2022-09-03T16:27:23.420Z,19.48
2022-09-03T16:30:36.747Z,19.48
2022-09-03T16:33:48.998Z,19.48
2022-09-03T16:36:59.724Z,19.47
2022-09-03T16:40:13.327Z,19.44
2022-09-03T16:43:40.309Z,19.42
2022-09-03T16:46:51.089Z,19.26
2022-09-03T16:50:01.881Z,19.21
2022-09-03T16:53:14.137Z,18.98
2022-09-03T16:56:34.432Z,18.81
2022-09-03T16:59:52.181Z,18.89
2022-09-03T17:03:13.526Z,18.73
2022-09-03T17:06:27.971Z,18.62
2022-09-03T17:09:39.352Z,18.59
2022-09-03T17:12:51.349Z,18.50
2022-09-03T17:15:59.935Z,18.36
2022-09-03T17:19:10.327Z,18.33
2022-09-03T17:22:23.583Z,18.34
2022-09-03T17:25:34.877Z,18.54
2022-09-03T17:28:48.140Z,18.56
2022-09-03T17:32:06.159Z,18.61
2022-09-03T17:35:15.864Z,18.56
2022-09-03T17:38:27.753Z,18.55
2022-09-03T17:41:37.819Z,18.45
2022-09-03T17:44:51.420Z,18.42
2022-09-03T17:48:06.594Z,18.43
2022-09-03T17:51:18.697Z,18.48
2022-09-03T17:54:33.617Z,18.33
2022-09-03T17:57:41.501Z,18.30
2022-09-03T18:00:53.885Z,18.37
2022-09-03T18:04:05.172Z,18.39
2022-09-03T18:07:15.373Z,18.16
2022-09-03T18:10:28.805Z,18.20
2022-09-03T18:13:59.089Z,18.22
2022-09-03T18:17:06.224Z,18.19
2022-09-03T18:20:29.909Z,18.16
2022-09-03T18:23:59.913Z,18.06
2022-09-03T18:27:46.652Z,18.21
2022-09-03T18:31:11.850Z,18.09
2022-09-03T18:34:35.439Z,18.17
2022-09-03T18:37:59.392Z,18.19
2022-09-03T18:41:32.368Z,18.20
2022-09-03T18:45:20.703Z,18.19
2022-09-03T18:48:53.273Z,18.13
2022-09-03T18:52:21.083Z,18.14
2022-09-03T18:55:49.368Z,18.07
2022-09-03T18:59:20.530Z,17.98
2022-09-03T19:02:48.533Z,18.00
2022-09-03T19:06:18.563Z,17.95
2022-09-03T19:09:51.318Z,17.95
2022-09-03T19:13:25.661Z,17.95
2022-09-03T19:16:57.345Z,18.01
2022-09-03T19:20:23.905Z,17.94
2022-09-03T19:23:48.012Z,17.91
2022-09-03T19:27:46.090Z,18.01
2022-09-03T19:31:05.956Z,17.92
2022-09-03T19:34:36.057Z,17.93
2022-09-03T19:38:02.881Z,17.98
2022-09-03T19:41:36.189Z,18.06
2022-09-03T19:45:06.037Z,18.12
2022-09-03T19:48:35.014Z,18.21
2022-09-03T19:52:01.404Z,18.20
2022-09-03T19:55:24.777Z,18.19
2022-09-03T19:58:54.522Z,18.12
2022-09-03T20:02:18.296Z,18.07
2022-09-03T20:05:41.525Z,18.06
2022-09-03T20:09:05.131Z,18.06
2022-09-03T20:12:10.613Z,18.04
2022-09-03T20:15:17.404Z,18.27
2022-09-03T20:18:31.637Z,18.27
2022-09-03T20:21:41.041Z,18.26
2022-09-03T20:24:56.449Z,18.24
2022-09-03T20:28:05.964Z,18.30
2022-09-03T20:31:18.338Z,18.10
2022-09-03T20:34:29.105Z,18.02
2022-09-03T20:37:41.777Z,18.07
2022-09-03T20:40:48.005Z,18.09
2022-09-03T20:44:06.190Z,18.03
2022-09-03T20:47:26.646Z,18.04
2022-09-03T20:50:43.812Z,18.06
2022-09-03T20:53:56.810Z,18.10
2022-09-03T20:57:08.132Z,18.12
2022-09-03T21:00:15.266Z,18.08
2022-09-03T21:03:23.164Z,18.14
2022-09-03T21:06:32.650Z,18.20
2022-09-03T21:17:35.876Z,18.31
2022-09-03T21:20:46.122Z,18.20
2022-09-03T21:23:58.537Z,18.25
2022-09-03T21:27:07.410Z,18.18
2022-09-03T21:30:15.322Z,18.15
2022-09-03T21:33:21.816Z,18.14
2022-09-03T21:36:34.019Z,18.06
2022-09-03T21:44:05.390Z,18.05
2022-09-03T21:50:45.405Z,18.07
2022-09-03T21:53:54.679Z,18.07
2022-09-03T22:01:36.149Z,18.07
2022-09-03T22:04:41.983Z,18.07
2022-09-03T22:07:53.380Z,18.07
2022-09-03T22:11:05.539Z,18.06
2022-09-03T22:14:12.744Z,18.12
2022-09-03T22:17:21.995Z,18.07
2022-09-03T22:20:27.990Z,18.02
2022-09-03T22:23:43.796Z,17.97
2022-09-03T22:26:52.450Z,17.86
2022-09-03T22:30:03.881Z,17.84
2022-09-03T22:33:15.566Z,17.84
2022-09-03T22:36:23.454Z,17.85
2022-09-03T22:39:32.082Z,17.85
2022-09-03T22:42:46.258Z,17.90
2022-09-03T22:45:58.025Z,17.98
2022-09-03T22:49:21.219Z,17.93
2022-09-03T22:52:32.594Z,17.81
2022-09-03T22:55:40.520Z,17.88
2022-09-03T22:58:51.435Z,17.75
2022-09-03T23:02:01.561Z,17.74
2022-09-03T23:05:08.867Z,17.77
2022-09-03T23:08:15.629Z,17.71
2022-09-03T23:11:25.552Z,17.77
2022-09-03T23:14:35.475Z,17.69
2022-09-03T23:17:42.529Z,17.67
2022-09-03T23:20:53.261Z,17.70
2022-09-03T23:24:02.696Z,17.63
2022-09-03T23:27:10.256Z,17.55
2022-09-03T23:30:17.061Z,17.57
2022-09-03T23:33:22.303Z,17.59
2022-09-03T23:36:57.948Z,17.58
2022-09-03T23:40:15.697Z,17.70
2022-09-03T23:43:39.071Z,17.82
2022-09-03T23:46:51.515Z,17.79
2022-09-03T23:50:02.830Z,17.73
2022-09-03T23:53:25.065Z,17.71
2022-09-03T23:56:48.664Z,17.70
